This is the latest recevied weather packets stored in our database for station/object G7UKK-10. If no packets are shown the sender has not sent any weather packets the latest 10 day(s).
| Time | Temp. | Humidity | Pressure | Rain* | Wind** | Luminosity | Snow |
|---|---|---|---|---|---|---|---|
| 1777641917 | 22.22° C | 50% | 1020.3 hPa | 0 mm | - | - | - |
| 1777641017 | 22.22° C | 50% | 1020.2 hPa | 0 mm | - | - | - |
| 1777640117 | 21.67° C | 49% | 1020.2 hPa | 0 mm | - | - | - |
| 1777639217 | 21.67° C | 50% | 1020.4 hPa | 0 mm | - | - | - |
| 1777638317 | 21.11° C | 50% | 1020.6 hPa | 0 mm | - | - | - |
| 1777637417 | 20.56° C | 50% | 1020.8 hPa | 0 mm | - | - | - |
| 1777636517 | 20° C | 52% | 1020.8 hPa | 0 mm | - | - | - |
| 1777635616 | 19.44° C | 51% | 1021 hPa | 0 mm | - | - | - |
| 1777634727 | 19.44° C | 52% | 1021.2 hPa | 0 mm | - | - | - |
| 1777633817 | 18.89° C | 53% | 1021.5 hPa | 0 mm | - | - | - |
| 1777632017 | 18.33° C | 54% | 1021.6 hPa | 0 mm | - | - | - |
| 1777631117 | 17.78° C | 54% | 1021.6 hPa | 0 mm | - | - | - |
| 1777630217 | 17.22° C | 57% | 1021.8 hPa | 0 mm | - | - | - |
| 1777629317 | 16.11° C | 60% | 1021.8 hPa | 0 mm | - | - | - |
| 1777628417 | 16.11° C | 59% | 1022.1 hPa | 0 mm | - | - | - |
| 1777627517 | 15.56° C | 62% | 1022.2 hPa | 0 mm | - | - | - |
| 1777626617 | 14.44° C | 63% | 1022.1 hPa | 0 mm | - | - | - |
| 1777625717 | 13.33° C | 66% | 1022.1 hPa | 0 mm | - | - | - |
| 1777624817 | 13.33° C | 65% | 1022.2 hPa | 0 mm | - | - | - |
| 1777623917 | 12.78° C | 65% | 1022.3 hPa | 0 mm | - | - | - |
| 1777623017 | 12.22° C | 67% | 1022.3 hPa | 0 mm | - | - | - |
| 1777622117 | 11.11° C | 72% | 1022.4 hPa | 0 mm | - | - | - |
| 1777621217 | 11.11° C | 73% | 1022.4 hPa | 0 mm | - | - | - |
| 1777620317 | 11.11° C | 72% | 1022.5 hPa | 0 mm | - | - | - |
| 1777619417 | 10.56° C | 70% | 1022.4 hPa | 0 mm | - | - | - |
* Rain latest hour (hover to see other rain measurements)
** Current wind speed in m/s (hover to see current wind gust speed)